Terminal Aerodrome Forecast
Issued by NWS Huntsville, AL

Home | Current Version | Previous Version | Text Only | Print | Product List | Glossary On
Versions: 1 2 3 4 5 6 7 8 9 10 11 12 13
000
FTUS44 KHUN 112056 AAA
TAFHSV
TAF AMD
KHSV 112056Z 1121/1218 22012KT P6SM FEW250
     FM120400 25010KT P6SM SCT040 BKN150 WS020/26045KT
     FM120700 30010KT P6SM SCT040 BKN150
     FM121500 32013G18KT P6SM BKN040 BKN150=

USA.gov is the U.S. government's official web portal to all federal, state and local government web resources and services.